Weather reports worldwide

Advertisment
Arenys De Mar, Spain (8186): temperature & dewpoint: 10.09.2019 05:00:00 - 16.09.2019 05:00:00 (CEST)Arenys De Mar, Spain (8186): wind speed & gusts: 10.09.2019 05:00:00 - 16.09.2019 05:00:00 (CEST)Arenys De Mar, Spain (8186): wind direction: 10.09.2019 05:00:00 - 16.09.2019 05:00:00 (CEST)Arenys De Mar, Spain (8186): precipitation: 10.09.2019 05:00:00 - 16.09.2019 05:00:00 (CEST)
Date & Time tt [°C] td [°C] ff [km/h] ff [kn] fx [km/h] fx [kn] dd rr [mm]
16.09.2019 05:00:00 - - - - - - - -
16.09.2019 04:00:00 19,7 9,6 7 4 14 8 N 0,0
16.09.2019 03:00:00 19,6 9,4 7 4 13 7 N 0,0
16.09.2019 02:00:00 19,7 9,8 5 3 9 5 NNW -
16.09.2019 01:00:00 20,2 10,6 6 3 12 6 N 0,0
16.09.2019 00:00:00 20,2 11,1 5 3 11 6 N 0,0
15.09.2019 23:00:00 21,1 10,5 6 3 13 7 N 0,0
15.09.2019 22:00:00 21,0 11,6 7 4 13 7 N 0,0
15.09.2019 21:00:00 21,5 12,6 3 1 6 3 N 0,0
15.09.2019 20:00:00 23,0 13,0 1 0 12 7 E -
15.09.2019 19:00:00 24,9 13,2 3 2 17 9 E 0,0
15.09.2019 18:00:00 25,9 14,7 3 1 19 11 E 0,0
15.09.2019 17:00:00 27,8 15,8 4 2 19 10 ESE 0,0
15.09.2019 16:00:00 29,0 16,9 3 2 19 10 E 0,0
15.09.2019 15:00:00 26,8 14,2 4 2 19 10 E 0,0
15.09.2019 14:00:00 29,4 15,5 3 2 20 11 E -
15.09.2019 13:00:00 29,9 12,7 3 2 19 10 NE 0,0
15.09.2019 12:00:00 27,5 11,1 1 1 19 10 NNE 0,0
15.09.2019 11:00:00 27,2 11,2 3 2 19 10 NE 0,0
15.09.2019 10:00:00 26,0 10,5 5 3 23 12 NNE 0,0
15.09.2019 09:00:00 23,4 9,4 3 2 19 11 NE 0,0
15.09.2019 08:00:00 23,1 9,2 6 4 14 8 NNE -
15.09.2019 07:00:00 20,5 8,8 4 2 16 8 NNE 0,0
15.09.2019 06:00:00 19,7 9,3 6 3 13 7 N 0,0
15.09.2019 05:00:00 20,4 9,3 3 2 16 8 SW 0,0
15.09.2019 04:00:00 22,3 9,8 10 5 20 11 N 0,0
15.09.2019 03:00:00 22,3 10,4 8 4 14 7 N 0,0
15.09.2019 02:00:00 22,5 10,3 1 1 16 9 NNE -
15.09.2019 01:00:00 23,1 10,2 4 2 22 12 NNE 0,0
15.09.2019 00:00:00 22,5 10,3 6 4 18 10 N 0,0
14.09.2019 23:00:00 21,5 11,6 1 1 9 5 E 0,0
14.09.2019 22:00:00 22,2 11,2 2 1 10 5 NNE 0,0
14.09.2019 21:00:00 21,8 14,4 0 0 14 8 E 0,0
14.09.2019 20:00:00 22,7 14,2 1 1 12 7 ESE -
14.09.2019 19:00:00 24,4 13,9 3 1 21 11 E 0,0
14.09.2019 18:00:00 25,9 14,0 3 2 29 16 ESE 0,0
14.09.2019 17:00:00 26,0 15,3 3 2 19 10 ESE 0,0
14.09.2019 16:00:00 27,6 11,6 5 3 16 9 ENE 0,0
14.09.2019 15:00:00 29,7 11,2 4 2 25 14 ESE 0,0
14.09.2019 14:00:00 28,2 9,9 8 4 24 13 E -
14.09.2019 13:00:00 28,5 11,6 4 2 20 11 SE 0,0
14.09.2019 12:00:00 29,5 11,1 2 1 24 13 ESE 0,0
14.09.2019 11:00:00 28,0 9,8 5 3 22 12 ESE 0,0
14.09.2019 10:00:00 27,0 8,4 9 5 29 16 NNE 0,0
14.09.2019 09:00:00 25,4 8,4 13 7 24 13 N 0,0
14.09.2019 08:00:00 23,9 8,0 11 6 30 16 N -
14.09.2019 07:00:00 24,0 8,0 15 8 27 15 N 0,0
14.09.2019 06:00:00 24,6 8,1 11 6 31 17 N 0,0
14.09.2019 05:00:00 24,4 8,0 8 4 32 18 NNE 0,0
14.09.2019 04:00:00 24,1 9,3 8 4 21 11 NNE 0,0
14.09.2019 03:00:00 22,8 10,3 9 5 23 12 NNE 0,0
14.09.2019 02:00:00 22,1 10,3 6 3 22 12 N -
14.09.2019 01:00:00 20,8 13,3 4 2 17 9 N 0,0
14.09.2019 00:00:00 21,8 13,0 8 4 17 9 SW 0,0
13.09.2019 23:00:00 20,6 12,0 1 1 7 4 NNW 0,0
13.09.2019 22:00:00 20,4 14,3 1 0 6 3 SW 0,0
13.09.2019 21:00:00 21,8 14,7 0 0 11 6 SSE 0,0
13.09.2019 20:00:00 22,1 15,7 3 2 16 9 ESE -
13.09.2019 19:00:00 23,2 14,5 3 1 16 9 ESE 0,0
13.09.2019 18:00:00 24,1 14,2 4 2 12 7 SE 0,0
13.09.2019 17:00:00 26,8 10,5 1 1 10 6 ENE 0,0
13.09.2019 16:00:00 29,9 10,9 1 1 24 13 NNE 0,0
13.09.2019 15:00:00 25,1 11,3 3 2 13 7 NNE 0,0
13.09.2019 14:00:00 26,9 12,1 4 2 16 9 NE -
13.09.2019 13:00:00 25,8 13,3 3 2 17 9 E 0,0
13.09.2019 12:00:00 25,7 8,7 5 3 31 17 SSE 0,0
13.09.2019 11:00:00 25,7 8,3 9 5 35 19 NNE 0,0
13.09.2019 10:00:00 25,0 8,0 10 6 39 21 NNE 0,0
13.09.2019 09:00:00 24,1 7,7 14 7 32 17 N 0,0
13.09.2019 08:00:00 23,0 7,6 6 4 19 10 NNE -
13.09.2019 07:00:00 22,6 7,1 9 5 18 10 N 0,0
13.09.2019 06:00:00 23,0 7,1 8 4 21 12 N 0,0
13.09.2019 05:00:00 21,2 7,7 7 4 13 7 N 0,0
13.09.2019 04:00:00 17,7 8,5 1 1 5 3 WNW 0,0
13.09.2019 03:00:00 18,3 8,3 3 1 4 2 WSW 0,0
13.09.2019 02:00:00 18,9 8,3 1 1 5 3 WSW -
13.09.2019 01:00:00 20,9 7,6 3 2 10 5 ENE 0,0
13.09.2019 00:00:00 23,0 6,7 5 3 17 9 NNE 0,0
12.09.2019 23:00:00 23,4 7,0 8 4 36 20 NNE 0,0
12.09.2019 22:00:00 23,0 7,8 9 5 19 11 N 0,0
12.09.2019 21:00:00 21,5 10,6 3 2 10 6 ESE 0,0
12.09.2019 20:00:00 21,8 12,3 4 2 16 9 ESE -
12.09.2019 19:00:00 23,7 11,1 5 3 19 10 SE 0,0
12.09.2019 18:00:00 27,0 10,2 5 3 21 11 E 0,0
12.09.2019 17:00:00 29,9 8,3 3 2 18 10 ESE 0,0
12.09.2019 16:00:00 29,3 11,3 4 2 23 12 SE 0,0
12.09.2019 15:00:00 28,9 12,3 2 1 19 10 ESE 0,0
12.09.2019 14:00:00 29,4 13,6 4 2 14 8 SW -
12.09.2019 13:00:00 27,3 12,1 4 2 16 8 SSE 0,0
12.09.2019 12:00:00 28,7 9,9 2 1 12 6 E 0,0
12.09.2019 11:00:00 27,1 10,8 4 2 13 7 S 0,0
12.09.2019 10:00:00 25,3 11,1 8 5 18 10 SW 0,0
12.09.2019 09:00:00 22,1 10,3 5 3 12 7 SSW 0,0
12.09.2019 08:00:00 20,7 6,2 4 2 9 5 N -
12.09.2019 07:00:00 23,1 5,5 5 3 19 10 N 0,0
12.09.2019 06:00:00 21,3 5,1 6 3 24 13 N 0,0
12.09.2019 05:00:00 23,0 5,5 13 7 27 15 N 0,0
12.09.2019 04:00:00 23,5 5,8 13 7 32 17 N 0,0
12.09.2019 03:00:00 23,9 6,2 13 7 28 15 N 0,0
12.09.2019 02:00:00 24,4 6,7 11 6 30 16 NNE -
12.09.2019 01:00:00 24,0 6,7 11 6 32 17 N 0,0
12.09.2019 00:00:00 22,7 7,3 9 5 22 12 N 0,0
11.09.2019 23:00:00 22,9 7,4 12 7 25 13 N 0,0
11.09.2019 22:00:00 22,5 7,1 9 5 29 16 NNE 0,0
11.09.2019 21:00:00 23,4 7,4 10 6 26 14 NNE 0,0
11.09.2019 20:00:00 23,4 7,4 7 4 25 14 NNE -
11.09.2019 19:00:00 24,5 8,4 5 3 40 22 NNE 0,0
11.09.2019 18:00:00 25,2 8,7 10 5 37 20 N 0,0
11.09.2019 17:00:00 25,5 8,9 14 7 41 22 NNE 0,0
11.09.2019 16:00:00 24,5 8,8 14 8 44 24 NNE 0,0
11.09.2019 15:00:00 23,7 9,3 19 10 59 32 NNE 0,0
11.09.2019 14:00:00 22,3 9,8 26 14 61 33 N -
11.09.2019 13:00:00 21,6 9,8 24 13 59 32 N 0,0
11.09.2019 12:00:00 21,6 10,2 19 10 48 26 N 0,0
11.09.2019 11:00:00 20,9 11,2 23 13 65 35 N 0,3
11.09.2019 10:00:00 17,6 12,5 26 14 63 34 N 1,1
11.09.2019 09:00:00 18,2 10,5 23 13 62 33 N 0,4
11.09.2019 08:00:00 18,1 11,4 21 11 56 30 N -
11.09.2019 07:00:00 17,2 11,9 23 12 66 36 N 0,2
11.09.2019 06:00:00 17,4 11,9 19 11 74 40 NNE 1,4
11.09.2019 05:00:00 18,6 9,7 23 13 63 34 N 0,0
11.09.2019 04:00:00 17,6 9,9 26 14 71 38 N 0,0
11.09.2019 03:00:00 17,9 9,3 26 14 58 32 NNE 0,1
11.09.2019 02:00:00 16,9 10,0 25 13 59 32 N -
11.09.2019 01:00:00 16,3 9,9 27 15 63 34 NNE 0,2
11.09.2019 00:00:00 17,3 8,7 26 14 66 36 N 0,1
10.09.2019 23:00:00 15,6 10,8 21 12 59 32 N 1,5
10.09.2019 22:00:00 14,7 11,1 19 11 57 31 N 0,6
10.09.2019 21:00:00 16,1 9,8 14 8 40 22 N 0,6
10.09.2019 20:00:00 16,3 11,2 2 1 13 7 SW -
10.09.2019 19:00:00 16,2 10,8 2 1 18 10 WSW 0,1
10.09.2019 18:00:00 16,9 8,8 7 4 21 12 W 0,0
10.09.2019 17:00:00 18,0 8,5 4 2 12 7 WNW 0,0
10.09.2019 16:00:00 17,9 10,5 2 1 14 8 SSW 0,1
10.09.2019 15:00:00 16,8 8,0 8 4 30 16 NNW 0,0
10.09.2019 14:00:00 15,5 11,3 10 5 32 17 N -
10.09.2019 13:00:00 14,0 11,9 1 1 29 15 E 11,2
10.09.2019 12:00:00 17,7 5,9 15 8 49 26 N 0,0
10.09.2019 11:00:00 - - - - - - - -
10.09.2019 10:00:00 - - - - - - - -
10.09.2019 09:00:00 - - - - - - - -
10.09.2019 08:00:00 - - - - - - - -
10.09.2019 07:00:00 - - - - - - - -
10.09.2019 06:00:00 - - - - - - - -
10.09.2019 05:00:00 - - - - - - - -

tt = temperature
td = dewpoint
ff = wind speed
fx = gusts
dd = wind direction
rr = precipitation

Next stations